Terminal Aerodrome Forecast
Issued by NWS Lake Charles, LA

Home | Current Version | Previous Version | Text Only | Print | Product List | Glossary On
Versions: 1 2 3 4 5 6 7 8 9 10 11 12 13 14 15 16 17 18 19 20 21 22 23 24 25 26 27
000
FTUS44 KLCH 261341 AAA
TAFBPT
TAF AMD
KBPT 261341Z 2614/2712 VRB03KT 2SM BR OVC002
      TEMPO 2614/2615 6SM BR OVC005
     FM261500 15007KT P6SM SCT250
     FM270600 15008KT 6SM BR OVC005=

USA.gov is the U.S. government's official web portal to all federal, state and local government web resources and services.